sensor_id;sensor_type;location;lat;lon;timestamp;temperature;humidity
6738;DHT22;3406;49.902;8.596;2023-07-20T00:02:07;21.10;54.50
6738;DHT22;3406;49.902;8.596;2023-07-20T00:04:33;21.00;54.50
6738;DHT22;3406;49.902;8.596;2023-07-20T00:07:00;21.00;54.50
6738;DHT22;3406;49.902;8.596;2023-07-20T00:09:28;21.00;54.70
6738;DHT22;3406;49.902;8.596;2023-07-20T00:11:55;21.00;54.70
6738;DHT22;3406;49.902;8.596;2023-07-20T00:14:22;20.90;54.70
6738;DHT22;3406;49.902;8.596;2023-07-20T00:16:50;20.90;54.70
6738;DHT22;3406;49.902;8.596;2023-07-20T00:19:21;20.90;54.70
6738;DHT22;3406;49.902;8.596;2023-07-20T00:21:48;20.90;54.70
6738;DHT22;3406;49.902;8.596;2023-07-20T00:24:15;20.90;54.70
6738;DHT22;3406;49.902;8.596;2023-07-20T00:26:43;20.90;54.80
6738;DHT22;3406;49.902;8.596;2023-07-20T00:29:09;20.90;54.90
6738;DHT22;3406;49.902;8.596;2023-07-20T00:31:36;20.80;54.90
6738;DHT22;3406;49.902;8.596;2023-07-20T00:34:03;20.80;54.90
6738;DHT22;3406;49.902;8.596;2023-07-20T00:36:30;20.80;55.00
6738;DHT22;3406;49.902;8.596;2023-07-20T00:38:56;20.80;55.10
6738;DHT22;3406;49.902;8.596;2023-07-20T00:41:23;20.80;55.10
6738;DHT22;3406;49.902;8.596;2023-07-20T00:43:51;20.70;55.20
6738;DHT22;3406;49.902;8.596;2023-07-20T00:46:18;20.70;55.30
6738;DHT22;3406;49.902;8.596;2023-07-20T00:48:44;20.70;55.40
6738;DHT22;3406;49.902;8.596;2023-07-20T00:51:11;20.60;55.50
6738;DHT22;3406;49.902;8.596;2023-07-20T00:53:38;20.60;55.60
6738;DHT22;3406;49.902;8.596;2023-07-20T00:56:05;20.50;55.60
6738;DHT22;3406;49.902;8.596;2023-07-20T00:58:33;20.50;55.80
6738;DHT22;3406;49.902;8.596;2023-07-20T01:01:01;20.50;55.90
6738;DHT22;3406;49.902;8.596;2023-07-20T01:03:28;20.40;56.00
6738;DHT22;3406;49.902;8.596;2023-07-20T01:05:59;20.30;56.10
6738;DHT22;3406;49.902;8.596;2023-07-20T01:08:33;20.30;56.40
6738;DHT22;3406;49.902;8.596;2023-07-20T01:11:10;20.20;56.50
6738;DHT22;3406;49.902;8.596;2023-07-20T01:13:38;20.10;56.70
6738;DHT22;3406;49.902;8.596;2023-07-20T01:16:06;20.10;56.80
6738;DHT22;3406;49.902;8.596;2023-07-20T01:18:33;20.00;57.00
6738;DHT22;3406;49.902;8.596;2023-07-20T01:21:03;19.90;57.10
6738;DHT22;3406;49.902;8.596;2023-07-20T01:23:55;19.90;57.40
6738;DHT22;3406;49.902;8.596;2023-07-20T01:26:43;19.80;57.50
6738;DHT22;3406;49.902;8.596;2023-07-20T01:29:25;19.80;57.70
6738;DHT22;3406;49.902;8.596;2023-07-20T01:31:58;19.70;57.90
6738;DHT22;3406;49.902;8.596;2023-07-20T01:34:29;19.70;58.00
6738;DHT22;3406;49.902;8.596;2023-07-20T01:36:56;19.60;58.10
6738;DHT22;3406;49.902;8.596;2023-07-20T01:39:23;19.60;58.30
6738;DHT22;3406;49.902;8.596;2023-07-20T01:41:50;19.50;58.30
6738;DHT22;3406;49.902;8.596;2023-07-20T01:44:17;19.50;58.40
6738;DHT22;3406;49.902;8.596;2023-07-20T01:46:43;19.40;58.60
6738;DHT22;3406;49.902;8.596;2023-07-20T01:49:11;19.30;58.80
6738;DHT22;3406;49.902;8.596;2023-07-20T01:51:38;19.30;59.00
6738;DHT22;3406;49.902;8.596;2023-07-20T01:54:05;19.20;59.20
6738;DHT22;3406;49.902;8.596;2023-07-20T01:56:32;19.10;59.20
6738;DHT22;3406;49.902;8.596;2023-07-20T01:58:59;19.10;59.40
6738;DHT22;3406;49.902;8.596;2023-07-20T02:01:25;19.10;59.70
6738;DHT22;3406;49.902;8.596;2023-07-20T02:03:53;19.00;59.80
6738;DHT22;3406;49.902;8.596;2023-07-20T02:06:21;18.90;59.90
6738;DHT22;3406;49.902;8.596;2023-07-20T02:08:48;18.90;60.10
6738;DHT22;3406;49.902;8.596;2023-07-20T02:11:15;18.90;60.20
6738;DHT22;3406;49.902;8.596;2023-07-20T02:13:41;18.80;60.30
6738;DHT22;3406;49.902;8.596;2023-07-20T02:16:08;18.70;60.40
6738;DHT22;3406;49.902;8.596;2023-07-20T02:18:36;18.70;60.50
6738;DHT22;3406;49.902;8.596;2023-07-20T02:21:03;18.70;60.60
6738;DHT22;3406;49.902;8.596;2023-07-20T02:23:31;18.70;60.70
6738;DHT22;3406;49.902;8.596;2023-07-20T02:25:58;18.70;60.80
6738;DHT22;3406;49.902;8.596;2023-07-20T02:28:24;18.70;60.90
6738;DHT22;3406;49.902;8.596;2023-07-20T02:30:51;18.70;60.90
6738;DHT22;3406;49.902;8.596;2023-07-20T02:33:19;18.60;60.90
6738;DHT22;3406;49.902;8.596;2023-07-20T02:35:46;18.60;61.00
6738;DHT22;3406;49.902;8.596;2023-07-20T02:38:12;18.60;61.00
6738;DHT22;3406;49.902;8.596;2023-07-20T02:40:40;18.50;61.10
6738;DHT22;3406;49.902;8.596;2023-07-20T02:43:07;18.50;61.40
6738;DHT22;3406;49.902;8.596;2023-07-20T02:45:34;18.40;61.40
6738;DHT22;3406;49.902;8.596;2023-07-20T02:48:01;18.40;61.60
6738;DHT22;3406;49.902;8.596;2023-07-20T02:50:28;18.40;61.60
6738;DHT22;3406;49.902;8.596;2023-07-20T02:52:55;18.40;61.70
6738;DHT22;3406;49.902;8.596;2023-07-20T02:55:21;18.40;61.70
6738;DHT22;3406;49.902;8.596;2023-07-20T02:57:49;18.30;61.70
6738;DHT22;3406;49.902;8.596;2023-07-20T03:00:16;18.30;61.80
6738;DHT22;3406;49.902;8.596;2023-07-20T03:02:44;18.30;61.80
6738;DHT22;3406;49.902;8.596;2023-07-20T03:05:13;18.30;61.90
6738;DHT22;3406;49.902;8.596;2023-07-20T03:07:39;18.20;61.90
6738;DHT22;3406;49.902;8.596;2023-07-20T03:10:09;18.30;62.10
6738;DHT22;3406;49.902;8.596;2023-07-20T03:12:36;18.20;62.20
6738;DHT22;3406;49.902;8.596;2023-07-20T03:15:05;18.10;62.30
6738;DHT22;3406;49.902;8.596;2023-07-20T03:17:32;18.00;62.40
6738;DHT22;3406;49.902;8.596;2023-07-20T03:19:58;18.00;62.50
6738;DHT22;3406;49.902;8.596;2023-07-20T03:22:26;18.00;62.70
6738;DHT22;3406;49.902;8.596;2023-07-20T03:24:52;18.00;62.80
6738;DHT22;3406;49.902;8.596;2023-07-20T03:27:19;17.90;62.80
6738;DHT22;3406;49.902;8.596;2023-07-20T03:29:46;17.90;63.00
6738;DHT22;3406;49.902;8.596;2023-07-20T03:32:14;17.80;63.10
6738;DHT22;3406;49.902;8.596;2023-07-20T03:34:41;17.80;63.30
6738;DHT22;3406;49.902;8.596;2023-07-20T03:37:07;17.70;63.40
6738;DHT22;3406;49.902;8.596;2023-07-20T03:39:34;17.70;63.50
6738;DHT22;3406;49.902;8.596;2023-07-20T03:42:00;17.60;63.50
6738;DHT22;3406;49.902;8.596;2023-07-20T03:44:27;17.60;63.60
6738;DHT22;3406;49.902;8.596;2023-07-20T03:46:54;17.60;63.80
6738;DHT22;3406;49.902;8.596;2023-07-20T03:49:22;17.50;63.90
6738;DHT22;3406;49.902;8.596;2023-07-20T03:51:49;17.50;64.00
6738;DHT22;3406;49.902;8.596;2023-07-20T03:54:16;17.40;64.00
6738;DHT22;3406;49.902;8.596;2023-07-20T03:56:42;17.40;64.20
6738;DHT22;3406;49.902;8.596;2023-07-20T03:59:09;17.40;64.30
6738;DHT22;3406;49.902;8.596;2023-07-20T04:01:35;17.40;64.40
6738;DHT22;3406;49.902;8.596;2023-07-20T04:04:05;17.30;64.40
6738;DHT22;3406;49.902;8.596;2023-07-20T04:06:34;17.30;64.60
6738;DHT22;3406;49.902;8.596;2023-07-20T04:09:00;17.30;64.80
6738;DHT22;3406;49.902;8.596;2023-07-20T04:11:27;17.30;64.90
6738;DHT22;3406;49.902;8.596;2023-07-20T04:13:54;17.30;65.00
6738;DHT22;3406;49.902;8.596;2023-07-20T04:16:21;17.30;65.00
6738;DHT22;3406;49.902;8.596;2023-07-20T04:18:48;17.30;65.10
6738;DHT22;3406;49.902;8.596;2023-07-20T04:21:14;17.20;65.00
6738;DHT22;3406;49.902;8.596;2023-07-20T04:23:42;17.20;65.20
6738;DHT22;3406;49.902;8.596;2023-07-20T04:26:09;17.20;65.30
6738;DHT22;3406;49.902;8.596;2023-07-20T04:28:38;17.20;65.30
6738;DHT22;3406;49.902;8.596;2023-07-20T04:31:12;17.20;65.50
6738;DHT22;3406;49.902;8.596;2023-07-20T04:33:39;17.10;65.50
6738;DHT22;3406;49.902;8.596;2023-07-20T04:36:06;17.10;66.00
6738;DHT22;3406;49.902;8.596;2023-07-20T04:38:33;17.10;65.60
6738;DHT22;3406;49.902;8.596;2023-07-20T04:41:01;17.10;65.90
6738;DHT22;3406;49.902;8.596;2023-07-20T04:43:29;17.10;66.00
6738;DHT22;3406;49.902;8.596;2023-07-20T04:45:55;17.10;66.10
6738;DHT22;3406;49.902;8.596;2023-07-20T04:48:22;17.10;66.20
6738;DHT22;3406;49.902;8.596;2023-07-20T04:50:49;17.20;66.20
6738;DHT22;3406;49.902;8.596;2023-07-20T04:53:15;17.20;66.30
6738;DHT22;3406;49.902;8.596;2023-07-20T04:55:47;17.20;66.30
6738;DHT22;3406;49.902;8.596;2023-07-20T04:58:17;17.20;66.30
6738;DHT22;3406;49.902;8.596;2023-07-20T05:00:44;17.30;66.30
6738;DHT22;3406;49.902;8.596;2023-07-20T05:03:10;17.30;66.30
6738;DHT22;3406;49.902;8.596;2023-07-20T05:05:37;17.30;66.30
6738;DHT22;3406;49.902;8.596;2023-07-20T05:08:04;17.30;66.40
6738;DHT22;3406;49.902;8.596;2023-07-20T05:10:30;17.40;66.40
6738;DHT22;3406;49.902;8.596;2023-07-20T05:12:57;17.40;66.40
6738;DHT22;3406;49.902;8.596;2023-07-20T05:15:25;17.50;66.50
6738;DHT22;3406;49.902;8.596;2023-07-20T05:17:52;17.60;66.40
6738;DHT22;3406;49.902;8.596;2023-07-20T05:20:19;17.70;66.30
6738;DHT22;3406;49.902;8.596;2023-07-20T05:22:46;17.80;66.30
6738;DHT22;3406;49.902;8.596;2023-07-20T05:25:13;17.90;66.30
6738;DHT22;3406;49.902;8.596;2023-07-20T05:27:43;18.00;66.30
6738;DHT22;3406;49.902;8.596;2023-07-20T05:30:10;18.00;66.20
6738;DHT22;3406;49.902;8.596;2023-07-20T05:32:38;18.10;66.20
6738;DHT22;3406;49.902;8.596;2023-07-20T05:35:06;18.20;66.10
6738;DHT22;3406;49.902;8.596;2023-07-20T05:37:33;18.30;66.00
6738;DHT22;3406;49.902;8.596;2023-07-20T05:40:00;18.40;65.90
6738;DHT22;3406;49.902;8.596;2023-07-20T05:42:27;18.50;65.70
6738;DHT22;3406;49.902;8.596;2023-07-20T05:44:53;18.60;66.20
6738;DHT22;3406;49.902;8.596;2023-07-20T05:47:20;18.80;65.30
6738;DHT22;3406;49.902;8.596;2023-07-20T05:49:48;18.90;65.10
6738;DHT22;3406;49.902;8.596;2023-07-20T05:52:15;19.00;64.80
6738;DHT22;3406;49.902;8.596;2023-07-20T05:54:42;19.10;64.60
6738;DHT22;3406;49.902;8.596;2023-07-20T05:57:09;19.10;64.40
6738;DHT22;3406;49.902;8.596;2023-07-20T05:59:36;19.10;64.40
6738;DHT22;3406;49.902;8.596;2023-07-20T06:02:04;19.20;64.40
6738;DHT22;3406;49.902;8.596;2023-07-20T06:04:31;19.30;64.30
6738;DHT22;3406;49.902;8.596;2023-07-20T06:06:58;19.40;64.10
6738;DHT22;3406;49.902;8.596;2023-07-20T06:09:25;19.40;63.80
6738;DHT22;3406;49.902;8.596;2023-07-20T06:11:52;19.50;63.90
6738;DHT22;3406;49.902;8.596;2023-07-20T06:14:19;19.60;63.60
6738;DHT22;3406;49.902;8.596;2023-07-20T06:16:46;19.70;63.60
6738;DHT22;3406;49.902;8.596;2023-07-20T06:19:12;19.80;63.50
6738;DHT22;3406;49.902;8.596;2023-07-20T06:21:39;19.80;63.10
6738;DHT22;3406;49.902;8.596;2023-07-20T06:24:07;19.80;62.90
6738;DHT22;3406;49.902;8.596;2023-07-20T06:26:34;19.90;62.80
6738;DHT22;3406;49.902;8.596;2023-07-20T06:29:04;19.90;62.70
6738;DHT22;3406;49.902;8.596;2023-07-20T06:31:31;19.90;62.60
6738;DHT22;3406;49.902;8.596;2023-07-20T06:33:58;19.90;62.70
6738;DHT22;3406;49.902;8.596;2023-07-20T06:36:25;20.00;62.90
6738;DHT22;3406;49.902;8.596;2023-07-20T06:38:52;20.10;62.80
6738;DHT22;3406;49.902;8.596;2023-07-20T06:41:20;20.20;62.60
6738;DHT22;3406;49.902;8.596;2023-07-20T06:43:47;20.40;62.50
6738;DHT22;3406;49.902;8.596;2023-07-20T06:46:14;20.50;62.20
6738;DHT22;3406;49.902;8.596;2023-07-20T06:48:40;20.60;62.00
6738;DHT22;3406;49.902;8.596;2023-07-20T06:51:07;20.60;61.90
6738;DHT22;3406;49.902;8.596;2023-07-20T06:53:34;20.50;61.80
6738;DHT22;3406;49.902;8.596;2023-07-20T06:56:00;20.50;61.90
6738;DHT22;3406;49.902;8.596;2023-07-20T06:58:28;20.50;62.00
6738;DHT22;3406;49.902;8.596;2023-07-20T07:00:55;20.50;62.00
6738;DHT22;3406;49.902;8.596;2023-07-20T07:03:22;20.50;62.00
6738;DHT22;3406;49.902;8.596;2023-07-20T07:05:48;20.60;61.90
6738;DHT22;3406;49.902;8.596;2023-07-20T07:08:15;20.80;61.30
6738;DHT22;3406;49.902;8.596;2023-07-20T07:10:42;21.00;61.00
6738;DHT22;3406;49.902;8.596;2023-07-20T07:13:09;21.20;60.30
6738;DHT22;3406;49.902;8.596;2023-07-20T07:15:37;21.40;60.00
6738;DHT22;3406;49.902;8.596;2023-07-20T07:18:04;21.60;59.80
6738;DHT22;3406;49.902;8.596;2023-07-20T07:20:31;21.80;59.50
6738;DHT22;3406;49.902;8.596;2023-07-20T07:22:57;22.00;59.40
6738;DHT22;3406;49.902;8.596;2023-07-20T07:25:24;22.20;59.10
6738;DHT22;3406;49.902;8.596;2023-07-20T07:27:52;22.40;58.80
6738;DHT22;3406;49.902;8.596;2023-07-20T07:30:19;22.40;58.40
6738;DHT22;3406;49.902;8.596;2023-07-20T07:32:47;22.50;58.40
6738;DHT22;3406;49.902;8.596;2023-07-20T07:35:14;22.70;58.20
6738;DHT22;3406;49.902;8.596;2023-07-20T07:37:41;22.80;57.80
6738;DHT22;3406;49.902;8.596;2023-07-20T07:40:08;22.70;57.30
6738;DHT22;3406;49.902;8.596;2023-07-20T07:42:35;22.60;57.20
6738;DHT22;3406;49.902;8.596;2023-07-20T07:45:01;22.50;57.40
6738;DHT22;3406;49.902;8.596;2023-07-20T07:47:28;22.40;57.60
6738;DHT22;3406;49.902;8.596;2023-07-20T07:49:56;22.30;57.60
6738;DHT22;3406;49.902;8.596;2023-07-20T07:52:23;22.20;57.30
6738;DHT22;3406;49.902;8.596;2023-07-20T07:54:49;22.00;57.40
6738;DHT22;3406;49.902;8.596;2023-07-20T07:57:16;21.90;57.70
6738;DHT22;3406;49.902;8.596;2023-07-20T07:59:43;21.80;57.60
6738;DHT22;3406;49.902;8.596;2023-07-20T08:02:09;21.90;57.70
6738;DHT22;3406;49.902;8.596;2023-07-20T08:04:36;22.00;57.40
6738;DHT22;3406;49.902;8.596;2023-07-20T08:07:05;22.20;57.30
6738;DHT22;3406;49.902;8.596;2023-07-20T08:09:31;22.40;57.00
6738;DHT22;3406;49.902;8.596;2023-07-20T08:11:58;22.60;56.70
6738;DHT22;3406;49.902;8.596;2023-07-20T08:14:25;22.80;56.50
6738;DHT22;3406;49.902;8.596;2023-07-20T08:16:51;23.00;56.30
6738;DHT22;3406;49.902;8.596;2023-07-20T08:19:19;23.10;56.00
6738;DHT22;3406;49.902;8.596;2023-07-20T08:21:46;23.20;55.80
6738;DHT22;3406;49.902;8.596;2023-07-20T08:24:14;23.20;56.20
6738;DHT22;3406;49.902;8.596;2023-07-20T08:26:41;23.10;55.60
6738;DHT22;3406;49.902;8.596;2023-07-20T08:29:07;22.90;55.60
6738;DHT22;3406;49.902;8.596;2023-07-20T08:31:34;22.80;55.80
6738;DHT22;3406;49.902;8.596;2023-07-20T08:34:00;22.70;56.10
6738;DHT22;3406;49.902;8.596;2023-07-20T08:36:27;22.60;56.10
6738;DHT22;3406;49.902;8.596;2023-07-20T08:38:54;22.60;56.60
6738;DHT22;3406;49.902;8.596;2023-07-20T08:41:22;22.70;55.90
6738;DHT22;3406;49.902;8.596;2023-07-20T08:43:49;22.60;55.80
6738;DHT22;3406;49.902;8.596;2023-07-20T08:46:17;22.80;55.60
6738;DHT22;3406;49.902;8.596;2023-07-20T08:48:44;22.60;55.40
6738;DHT22;3406;49.902;8.596;2023-07-20T08:51:11;22.60;55.60
6738;DHT22;3406;49.902;8.596;2023-07-20T08:53:39;22.70;55.80
6738;DHT22;3406;49.902;8.596;2023-07-20T08:56:06;23.00;55.40
6738;DHT22;3406;49.902;8.596;2023-07-20T08:58:37;23.20;55.00
6738;DHT22;3406;49.902;8.596;2023-07-20T09:01:05;23.40;54.50
6738;DHT22;3406;49.902;8.596;2023-07-20T09:03:33;23.50;54.20
6738;DHT22;3406;49.902;8.596;2023-07-20T09:06:00;23.60;54.10
6738;DHT22;3406;49.902;8.596;2023-07-20T09:08:26;23.70;54.00
6738;DHT22;3406;49.902;8.596;2023-07-20T09:10:53;23.70;53.50
6738;DHT22;3406;49.902;8.596;2023-07-20T09:13:19;23.50;52.90
6738;DHT22;3406;49.902;8.596;2023-07-20T09:15:48;23.20;53.30
6738;DHT22;3406;49.902;8.596;2023-07-20T09:18:26;23.10;53.50
6738;DHT22;3406;49.902;8.596;2023-07-20T09:20:53;23.00;54.50
6738;DHT22;3406;49.902;8.596;2023-07-20T09:23:30;23.10;54.00
6738;DHT22;3406;49.902;8.596;2023-07-20T09:25:57;23.30;53.90
6738;DHT22;3406;49.902;8.596;2023-07-20T09:28:24;23.50;53.60
6738;DHT22;3406;49.902;8.596;2023-07-20T09:30:54;23.70;53.20
6738;DHT22;3406;49.902;8.596;2023-07-20T09:33:21;23.70;53.00
6738;DHT22;3406;49.902;8.596;2023-07-20T09:35:48;23.80;53.00
6738;DHT22;3406;49.902;8.596;2023-07-20T09:38:15;24.00;52.90
6738;DHT22;3406;49.902;8.596;2023-07-20T09:40:42;24.10;52.40
6738;DHT22;3406;49.902;8.596;2023-07-20T09:43:09;24.20;51.80
6738;DHT22;3406;49.902;8.596;2023-07-20T09:45:40;24.20;51.70
6738;DHT22;3406;49.902;8.596;2023-07-20T09:48:10;24.40;51.70
6738;DHT22;3406;49.902;8.596;2023-07-20T09:50:39;24.60;51.40
6738;DHT22;3406;49.902;8.596;2023-07-20T09:53:08;24.70;50.20
6738;DHT22;3406;49.902;8.596;2023-07-20T09:55:35;24.70;49.90
6738;DHT22;3406;49.902;8.596;2023-07-20T09:58:03;24.70;49.90
6738;DHT22;3406;49.902;8.596;2023-07-20T10:00:32;24.60;49.30
6738;DHT22;3406;49.902;8.596;2023-07-20T10:03:02;24.50;49.50
6738;DHT22;3406;49.902;8.596;2023-07-20T10:05:33;24.60;49.60
6738;DHT22;3406;49.902;8.596;2023-07-20T10:08:02;24.60;49.50
6738;DHT22;3406;49.902;8.596;2023-07-20T10:10:34;24.70;49.40
6738;DHT22;3406;49.902;8.596;2023-07-20T10:13:02;24.70;49.10
6738;DHT22;3406;49.902;8.596;2023-07-20T10:15:32;24.70;49.20
6738;DHT22;3406;49.902;8.596;2023-07-20T10:18:04;24.80;49.20
6738;DHT22;3406;49.902;8.596;2023-07-20T10:20:36;25.00;49.30
6738;DHT22;3406;49.902;8.596;2023-07-20T10:23:04;25.00;48.70
6738;DHT22;3406;49.902;8.596;2023-07-20T10:25:31;24.90;48.90
6738;DHT22;3406;49.902;8.596;2023-07-20T10:28:04;24.80;49.00
6738;DHT22;3406;49.902;8.596;2023-07-20T10:30:31;24.80;49.10
6738;DHT22;3406;49.902;8.596;2023-07-20T10:32:59;24.80;49.10
6738;DHT22;3406;49.902;8.596;2023-07-20T10:35:28;24.70;49.00
6738;DHT22;3406;49.902;8.596;2023-07-20T10:38:00;24.70;49.20
6738;DHT22;3406;49.902;8.596;2023-07-20T10:40:31;24.60;49.10
6738;DHT22;3406;49.902;8.596;2023-07-20T10:43:03;24.60;48.90
6738;DHT22;3406;49.902;8.596;2023-07-20T10:45:48;24.60;48.90
6738;DHT22;3406;49.902;8.596;2023-07-20T10:48:18;24.60;48.90
6738;DHT22;3406;49.902;8.596;2023-07-20T10:50:48;24.50;48.70
6738;DHT22;3406;49.902;8.596;2023-07-20T10:53:34;24.50;48.80
6738;DHT22;3406;49.902;8.596;2023-07-20T10:56:08;24.60;48.60
6738;DHT22;3406;49.902;8.596;2023-07-20T10:58:37;24.50;48.50
6738;DHT22;3406;49.902;8.596;2023-07-20T11:01:04;24.60;48.50
6738;DHT22;3406;49.902;8.596;2023-07-20T11:03:33;24.70;48.50
6738;DHT22;3406;49.902;8.596;2023-07-20T11:09:08;24.80;48.00
6738;DHT22;3406;49.902;8.596;2023-07-20T11:11:37;24.80;47.70
6738;DHT22;3406;49.902;8.596;2023-07-20T11:14:06;24.90;47.60
6738;DHT22;3406;49.902;8.596;2023-07-20T11:16:34;25.10;47.60
6738;DHT22;3406;49.902;8.596;2023-07-20T11:19:01;25.30;47.20
6738;DHT22;3406;49.902;8.596;2023-07-20T11:21:28;25.30;46.80
6738;DHT22;3406;49.902;8.596;2023-07-20T11:23:55;25.20;46.70
6738;DHT22;3406;49.902;8.596;2023-07-20T11:26:23;25.10;46.30
6738;DHT22;3406;49.902;8.596;2023-07-20T11:28:50;25.10;46.00
6738;DHT22;3406;49.902;8.596;2023-07-20T11:31:17;25.20;45.80
6738;DHT22;3406;49.902;8.596;2023-07-20T11:33:44;25.50;45.80
6738;DHT22;3406;49.902;8.596;2023-07-20T11:36:11;25.90;45.50
6738;DHT22;3406;49.902;8.596;2023-07-20T11:38:39;26.10;45.30
6738;DHT22;3406;49.902;8.596;2023-07-20T11:41:07;26.30;45.30
6738;DHT22;3406;49.902;8.596;2023-07-20T11:43:35;26.40;45.30
6738;DHT22;3406;49.902;8.596;2023-07-20T11:46:04;26.60;45.20
6738;DHT22;3406;49.902;8.596;2023-07-20T11:48:31;26.70;45.20
6738;DHT22;3406;49.902;8.596;2023-07-20T11:50:58;26.70;45.00
6738;DHT22;3406;49.902;8.596;2023-07-20T11:53:25;26.60;44.90
6738;DHT22;3406;49.902;8.596;2023-07-20T11:55:52;26.60;44.70
6738;DHT22;3406;49.902;8.596;2023-07-20T11:58:19;26.70;44.50
6738;DHT22;3406;49.902;8.596;2023-07-20T12:00:48;26.80;44.60
6738;DHT22;3406;49.902;8.596;2023-07-20T12:03:14;26.80;44.50
6738;DHT22;3406;49.902;8.596;2023-07-20T12:05:41;26.80;44.40
6738;DHT22;3406;49.902;8.596;2023-07-20T12:08:08;26.60;44.40
6738;DHT22;3406;49.902;8.596;2023-07-20T12:10:39;26.40;44.70
6738;DHT22;3406;49.902;8.596;2023-07-20T12:13:09;26.10;44.70
6738;DHT22;3406;49.902;8.596;2023-07-20T12:15:37;25.90;44.40
6738;DHT22;3406;49.902;8.596;2023-07-20T12:18:05;25.80;44.40
6738;DHT22;3406;49.902;8.596;2023-07-20T12:20:33;25.90;44.20
6738;DHT22;3406;49.902;8.596;2023-07-20T12:23:02;26.00;43.70
6738;DHT22;3406;49.902;8.596;2023-07-20T12:25:37;26.10;43.60
6738;DHT22;3406;49.902;8.596;2023-07-20T12:28:06;26.50;43.70
6738;DHT22;3406;49.902;8.596;2023-07-20T12:30:33;26.70;43.30
6738;DHT22;3406;49.902;8.596;2023-07-20T12:33:01;26.80;43.30
6738;DHT22;3406;49.902;8.596;2023-07-20T12:35:29;27.10;43.20
6738;DHT22;3406;49.902;8.596;2023-07-20T12:37:56;27.40;43.60
6738;DHT22;3406;49.902;8.596;2023-07-20T12:40:23;27.40;42.60
6738;DHT22;3406;49.902;8.596;2023-07-20T12:42:50;27.40;42.70
6738;DHT22;3406;49.902;8.596;2023-07-20T12:45:17;27.50;42.50
6738;DHT22;3406;49.902;8.596;2023-07-20T12:47:43;27.40;42.40
6738;DHT22;3406;49.902;8.596;2023-07-20T12:50:10;27.20;42.60
6738;DHT22;3406;49.902;8.596;2023-07-20T12:52:39;27.10;42.90
6738;DHT22;3406;49.902;8.596;2023-07-20T12:55:08;27.00;43.00
6738;DHT22;3406;49.902;8.596;2023-07-20T12:57:35;26.80;43.30
6738;DHT22;3406;49.902;8.596;2023-07-20T13:00:03;26.60;43.60
6738;DHT22;3406;49.902;8.596;2023-07-20T13:02:30;26.50;43.80
6738;DHT22;3406;49.902;8.596;2023-07-20T13:04:57;26.50;43.90
6738;DHT22;3406;49.902;8.596;2023-07-20T13:07:30;26.40;43.80
6738;DHT22;3406;49.902;8.596;2023-07-20T13:09:59;26.40;43.80
6738;DHT22;3406;49.902;8.596;2023-07-20T13:12:26;26.20;43.90
6738;DHT22;3406;49.902;8.596;2023-07-20T13:14:53;26.00;43.90
6738;DHT22;3406;49.902;8.596;2023-07-20T13:17:20;26.00;44.00
6738;DHT22;3406;49.902;8.596;2023-07-20T13:19:47;26.00;44.00
6738;DHT22;3406;49.902;8.596;2023-07-20T13:22:14;26.10;43.70
6738;DHT22;3406;49.902;8.596;2023-07-20T13:24:41;26.10;43.60
6738;DHT22;3406;49.902;8.596;2023-07-20T13:27:09;26.00;43.60
6738;DHT22;3406;49.902;8.596;2023-07-20T13:29:35;25.90;43.70
6738;DHT22;3406;49.902;8.596;2023-07-20T13:32:02;25.80;43.80
6738;DHT22;3406;49.902;8.596;2023-07-20T13:34:29;25.70;44.00
6738;DHT22;3406;49.902;8.596;2023-07-20T13:36:56;25.60;44.10
6738;DHT22;3406;49.902;8.596;2023-07-20T13:39:23;25.70;44.30
6738;DHT22;3406;49.902;8.596;2023-07-20T13:41:52;25.80;44.20
6738;DHT22;3406;49.902;8.596;2023-07-20T13:44:20;26.00;44.20
6738;DHT22;3406;49.902;8.596;2023-07-20T13:46:47;26.20;44.10
6738;DHT22;3406;49.902;8.596;2023-07-20T13:49:14;26.30;43.90
6738;DHT22;3406;49.902;8.596;2023-07-20T13:51:41;26.40;43.80
6738;DHT22;3406;49.902;8.596;2023-07-20T13:54:08;26.50;43.70
6738;DHT22;3406;49.902;8.596;2023-07-20T13:56:35;26.60;43.40
6738;DHT22;3406;49.902;8.596;2023-07-20T13:59:02;26.70;43.40
6738;DHT22;3406;49.902;8.596;2023-07-20T14:01:29;26.70;43.20
6738;DHT22;3406;49.902;8.596;2023-07-20T14:03:58;26.70;43.10
6738;DHT22;3406;49.902;8.596;2023-07-20T14:06:25;26.70;42.80
6738;DHT22;3406;49.902;8.596;2023-07-20T14:08:51;26.80;42.70
6738;DHT22;3406;49.902;8.596;2023-07-20T14:11:18;27.00;42.60
6738;DHT22;3406;49.902;8.596;2023-07-20T14:13:45;27.10;42.60
6738;DHT22;3406;49.902;8.596;2023-07-20T14:16:12;27.10;42.30
6738;DHT22;3406;49.902;8.596;2023-07-20T14:18:40;27.10;42.40
6738;DHT22;3406;49.902;8.596;2023-07-20T14:21:06;27.30;42.30
6738;DHT22;3406;49.902;8.596;2023-07-20T14:23:33;27.50;42.70
6738;DHT22;3406;49.902;8.596;2023-07-20T14:26:01;27.50;41.80
6738;DHT22;3406;49.902;8.596;2023-07-20T14:28:30;27.50;41.70
6738;DHT22;3406;49.902;8.596;2023-07-20T14:30:57;27.60;41.60
6738;DHT22;3406;49.902;8.596;2023-07-20T14:33:23;27.50;41.60
6738;DHT22;3406;49.902;8.596;2023-07-20T14:35:52;27.40;41.20
6738;DHT22;3406;49.902;8.596;2023-07-20T14:38:18;27.00;41.10
6738;DHT22;3406;49.902;8.596;2023-07-20T14:40:45;26.80;41.50
6738;DHT22;3406;49.902;8.596;2023-07-20T14:43:11;26.80;41.90
6738;DHT22;3406;49.902;8.596;2023-07-20T14:45:40;26.80;41.70
6738;DHT22;3406;49.902;8.596;2023-07-20T14:48:07;26.90;41.60
6738;DHT22;3406;49.902;8.596;2023-07-20T14:50:33;26.90;41.50
6738;DHT22;3406;49.902;8.596;2023-07-20T14:53:01;27.00;41.50
6738;DHT22;3406;49.902;8.596;2023-07-20T14:55:28;27.20;41.40
6738;DHT22;3406;49.902;8.596;2023-07-20T14:57:55;27.40;41.00
6738;DHT22;3406;49.902;8.596;2023-07-20T15:00:22;27.50;40.30
6738;DHT22;3406;49.902;8.596;2023-07-20T15:02:49;27.50;40.40
6738;DHT22;3406;49.902;8.596;2023-07-20T15:05:21;27.40;40.40
6738;DHT22;3406;49.902;8.596;2023-07-20T15:07:48;27.40;40.30
6738;DHT22;3406;49.902;8.596;2023-07-20T15:10:16;27.40;40.20
6738;DHT22;3406;49.902;8.596;2023-07-20T15:12:43;27.60;40.10
6738;DHT22;3406;49.902;8.596;2023-07-20T15:15:11;27.60;39.80
6738;DHT22;3406;49.902;8.596;2023-07-20T15:17:39;27.80;39.80
6738;DHT22;3406;49.902;8.596;2023-07-20T15:20:08;28.00;40.10
6738;DHT22;3406;49.902;8.596;2023-07-20T15:22:36;27.90;38.80
6738;DHT22;3406;49.902;8.596;2023-07-20T15:25:04;27.70;39.00
6738;DHT22;3406;49.902;8.596;2023-07-20T15:27:32;27.40;39.70
6738;DHT22;3406;49.902;8.596;2023-07-20T15:29:59;27.20;39.00
6738;DHT22;3406;49.902;8.596;2023-07-20T15:32:26;27.00;39.30
6738;DHT22;3406;49.902;8.596;2023-07-20T15:34:53;26.90;39.60
6738;DHT22;3406;49.902;8.596;2023-07-20T15:37:19;26.80;39.50
6738;DHT22;3406;49.902;8.596;2023-07-20T15:39:48;26.70;39.70
6738;DHT22;3406;49.902;8.596;2023-07-20T15:42:15;26.70;39.80
6738;DHT22;3406;49.902;8.596;2023-07-20T15:44:43;26.60;39.80
6738;DHT22;3406;49.902;8.596;2023-07-20T15:47:09;26.60;39.70
6738;DHT22;3406;49.902;8.596;2023-07-20T15:49:36;26.70;39.60
6738;DHT22;3406;49.902;8.596;2023-07-20T15:52:03;26.80;39.60
6738;DHT22;3406;49.902;8.596;2023-07-20T15:54:30;26.80;39.70
6738;DHT22;3406;49.902;8.596;2023-07-20T15:56:57;26.70;39.80
6738;DHT22;3406;49.902;8.596;2023-07-20T15:59:23;26.70;39.90
6738;DHT22;3406;49.902;8.596;2023-07-20T16:01:51;26.70;40.10
6738;DHT22;3406;49.902;8.596;2023-07-20T16:04:18;26.70;40.10
6738;DHT22;3406;49.902;8.596;2023-07-20T16:06:45;26.70;40.70
6738;DHT22;3406;49.902;8.596;2023-07-20T16:09:11;26.60;40.10